Time;durP1;ratioP1;P1;durP2;ratioP2;P2;SDS_P1;SDS_P2;PMS_P1;PMS_P2;Temp;Humidity;BMP_temperature;BMP_pressure;BME280_temperature;BME280_humidity;BME280_pressure;Samples;Min_cycle;Max_cycle;Signal;HPM_P1;HPM_P2
2022/02/02 00:04:22;;;;;;;21.27;4.15;;;;;;;5.42;88.93;99644.88;4985837;28;20053;-46
2022/02/02 00:09:50;;;;;;;19.35;3.28;;;;;;;5.38;88.43;99645.59;4927683;28;20038;-46
2022/02/02 00:12:21;;;;;;;13.10;2.78;;;;;;;5.33;88.50;99645.50;4982023;28;20038;-46
2022/02/02 00:20:28;;;;;;;17.98;3.45;;;;;;;5.19;88.83;99666.25;4944901;28;20069;-46
2022/02/02 00:22:58;;;;;;;16.80;3.22;;;;;;;5.15;88.95;99655.31;4984212;28;20175;-46
2022/02/02 00:25:31;;;;;;;26.67;4.05;;;;;;;5.21;88.59;99660.72;4984177;28;20641;-46
2022/02/02 00:27:59;;;;;;;18.45;3.58;;;;;;;5.27;88.72;99655.25;4985393;28;20042;-46
2022/02/02 00:30:29;;;;;;;12.57;3.17;;;;;;;5.26;88.65;99658.16;4984256;28;20031;-46
2022/02/02 00:35:45;;;;;;;20.13;3.63;;;;;;;5.18;88.88;99679.75;4984715;28;20311;-46
2022/02/02 00:38:10;;;;;;;17.75;3.60;;;;;;;5.24;89.03;99700.06;4983291;28;20285;-46
2022/02/02 00:40:36;;;;;;;25.67;3.60;;;;;;;5.30;88.46;99696.47;4988169;28;20443;-47
2022/02/02 00:43:01;;;;;;;20.48;4.05;;;;;;;5.25;88.94;99691.06;4984342;28;20084;-46
2022/02/02 00:45:32;;;;;;;17.35;4.40;;;;;;;5.23;89.35;99693.16;4987473;28;20083;-46
2022/02/02 00:48:01;;;;;;;18.33;3.55;;;;;;;5.24;88.93;99692.91;4987630;28;20412;-46
2022/02/02 00:50:27;;;;;;;22.83;3.70;;;;;;;5.21;89.44;99700.56;4985407;28;20057;-46
2022/02/02 00:52:53;;;;;;;23.20;3.35;;;;;;;5.20;89.71;99709.53;4989206;28;20037;-46
2022/02/02 00:55:19;;;;;;;20.50;4.43;;;;;;;5.21;89.60;99711.19;4987013;28;20040;-46
2022/02/02 00:57:45;;;;;;;21.50;3.30;;;;;;;5.19;89.76;99700.75;4985495;28;20468;-46
2022/02/02 01:00:12;;;;;;;21.85;4.28;;;;;;;5.15;89.65;99703.09;4987098;28;20255;-45
2022/02/02 01:02:38;;;;;;;21.20;3.53;;;;;;;5.24;89.52;99702.72;4986653;28;20022;-45
2022/02/02 01:05:04;;;;;;;13.68;3.08;;;;;;;5.21;89.57;99711.97;4985943;28;20354;-46
2022/02/02 01:07:58;;;;;;;19.00;3.00;;;;;;;5.19;89.59;99707.94;4981932;28;20030;-46
2022/02/02 01:10:57;;;;;;;16.23;3.03;;;;;;;5.19;89.57;99718.53;4987608;28;20037;-46
2022/02/02 01:21:54;;;;;;;15.05;3.35;;;;;;;5.21;88.86;99721.81;5017216;28;19966;-49
2022/02/02 01:29:45;;;;;;;19.60;4.10;;;;;;;5.18;88.03;99723.06;5016566;28;20065;-47
2022/02/02 01:32:11;;;;;;;15.75;3.40;;;;;;;5.13;87.86;99731.75;5015201;28;20431;-48
2022/02/02 01:34:36;;;;;;;12.88;2.78;;;;;;;5.09;88.08;99727.94;5016838;28;20072;-48
2022/02/02 01:37:02;;;;;;;18.38;3.67;;;;;;;5.15;88.05;99729.66;5018634;28;20044;-48
2022/02/02 01:39:29;;;;;;;27.15;4.95;;;;;;;5.11;88.27;99728.53;5013473;28;20103;-47
2022/02/02 01:41:56;;;;;;;19.65;3.00;;;;;;;5.09;88.37;99733.25;5020195;28;20103;-48
2022/02/02 01:46:54;;;;;;;25.33;4.30;;;;;;;5.07;88.48;99732.69;5010177;28;20109;-47
2022/02/02 01:52:37;;;;;;;18.30;4.30;;;;;;;5.14;87.92;99737.84;5012833;28;20052;-47
2022/02/02 01:55:05;;;;;;;13.68;3.00;;;;;;;5.12;88.01;99730.13;5016873;28;20120;-48
2022/02/02 02:00:11;;;;;;;17.20;3.50;;;;;;;5.09;88.71;99757.16;5014596;28;20410;-50
2022/02/02 02:02:37;;;;;;;17.52;2.85;;;;;;;5.11;88.61;99751.59;5018997;28;20029;-48
2022/02/02 02:05:04;;;;;;;22.33;4.32;;;;;;;5.12;88.31;99756.69;5015866;28;20799;-48
2022/02/02 02:07:30;;;;;;;21.02;4.18;;;;;;;5.13;88.70;99747.66;5007865;28;20116;-48
2022/02/02 02:09:57;;;;;;;20.67;3.88;;;;;;;5.15;88.19;99756.19;5012717;28;20456;-48
2022/02/02 02:12:24;;;;;;;13.82;3.33;;;;;;;5.14;88.14;99767.88;5016291;28;20052;-47
2022/02/02 02:17:15;;;;;;;25.05;4.15;;;;;;;5.12;88.54;99762.00;5009366;28;20036;-48
2022/02/02 02:19:49;;;;;;;14.43;2.45;;;;;;;5.07;88.69;99761.91;5012349;28;20056;-48
2022/02/02 02:22:29;;;;;;;18.80;3.43;;;;;;;5.06;88.54;99768.25;5012591;28;20426;-49
2022/02/02 02:24:55;;;;;;;13.45;3.25;;;;;;;5.11;88.33;99760.38;5011176;28;20033;-48
2022/02/02 02:27:23;;;;;;;20.98;3.70;;;;;;;5.12;88.49;99769.97;5013360;28;20059;-48
2022/02/02 02:33:29;;;;;;;16.60;3.15;;;;;;;5.11;88.67;99764.88;5013025;28;20437;-48
2022/02/02 02:57:12;;;;;;;18.67;3.28;;;;;;;4.99;90.62;99785.34;5015297;28;20591;-46
2022/02/02 03:00:00;;;;;;;26.58;3.90;;;;;;;5.02;89.72;99788.31;5014875;28;20021;-47
2022/02/02 03:29:55;;;;;;;22.52;3.40;;;;;;;5.01;89.60;99802.66;5014227;28;20529;-47
2022/02/02 03:35:23;;;;;;;18.48;3.53;;;;;;;5.00;89.40;99790.41;5015807;28;20683;-46
2022/02/02 03:51:31;;;;;;;28.50;3.58;;;;;;;4.99;88.79;99806.56;4964839;28;20034;-47
2022/02/02 03:56:38;;;;;;;18.40;2.95;;;;;;;4.97;88.33;99801.50;5016854;28;20171;-47
2022/02/02 03:59:24;;;;;;;28.98;4.55;;;;;;;4.96;88.16;99793.78;5014704;28;20472;-47
2022/02/02 04:07:04;;;;;;;17.77;2.40;;;;;;;5.04;87.56;99794.25;5015127;28;20541;-47
2022/02/02 04:09:33;;;;;;;21.15;3.53;;;;;;;5.08;87.20;99799.88;5017044;28;20594;-47
2022/02/02 04:53:04;;;;;;;20.50;2.35;;;;;;;5.02;85.98;99848.59;5018185;28;20457;-49
2022/02/02 05:13:58;;;;;;;22.20;3.10;;;;;;;5.02;86.20;99867.97;5014714;28;20112;-49
2022/02/02 05:45:38;;;;;;;14.02;3.60;;;;;;;4.85;88.10;99946.72;5016580;28;20032;-47
2022/02/02 05:53:21;;;;;;;13.85;2.53;;;;;;;4.87;87.13;99957.09;5013845;28;20089;-47
2022/02/02 05:55:49;;;;;;;15.95;3.63;;;;;;;4.90;87.01;99952.13;5018055;28;20041;-47
2022/02/02 05:58:15;;;;;;;24.40;3.53;;;;;;;4.93;86.18;99964.13;5013281;28;20109;-47
2022/02/02 06:00:41;;;;;;;24.17;2.70;;;;;;;4.91;86.19;99974.19;5016667;28;20108;-47
2022/02/02 06:03:13;;;;;;;17.70;2.53;;;;;;;4.90;85.42;99994.59;5016615;28;20408;-47
2022/02/02 06:05:40;;;;;;;16.52;2.90;;;;;;;4.93;84.70;99980.06;5013249;28;20029;-48
2022/02/02 06:08:13;;;;;;;12.35;1.90;;;;;;;4.88;85.03;99988.72;5016959;28;20033;-46
2022/02/02 06:10:41;;;;;;;11.02;2.28;;;;;;;4.88;85.35;99988.72;5019498;28;20162;-47
2022/02/02 06:13:07;;;;;;;17.40;2.92;;;;;;;4.84;85.42;100004.28;5020214;28;20044;-47
2022/02/02 06:15:34;;;;;;;19.40;2.72;;;;;;;4.90;85.34;100002.56;5011892;28;20045;-47
2022/02/02 06:18:02;;;;;;;18.45;3.00;;;;;;;4.95;85.10;100007.19;5020825;28;20096;-47
2022/02/02 06:20:28;;;;;;;13.13;2.85;;;;;;;4.93;84.99;100012.72;5017750;28;20033;-46
2022/02/02 06:23:18;;;;;;;17.77;2.33;;;;;;;4.96;84.17;100025.53;5022933;28;20048;-47
2022/02/02 06:25:48;;;;;;;15.80;2.80;;;;;;;4.94;84.38;100018.84;5022548;28;20264;-46
2022/02/02 06:28:21;;;;;;;24.35;3.17;;;;;;;4.87;84.09;100018.97;5022696;28;20057;-47
2022/02/02 06:30:59;;;;;;;18.13;2.60;;;;;;;4.91;84.00;100009.50;5019606;28;20703;-47
2022/02/02 06:33:36;;;;;;;14.75;4.00;;;;;;;4.90;84.27;100025.66;5020027;28;20148;-47
2022/02/02 06:36:04;;;;;;;11.32;3.08;;;;;;;4.89;83.40;100035.47;5016140;28;20029;-46
2022/02/02 06:38:31;;;;;;;10.35;2.50;;;;;;;4.90;83.55;100036.28;5021338;28;20037;-47
2022/02/02 06:40:59;;;;;;;12.95;3.08;;;;;;;4.89;83.66;100042.63;5021128;28;20018;-46
2022/02/02 06:43:25;;;;;;;10.25;2.38;;;;;;;4.89;83.44;100059.34;5019907;28;20317;-47
2022/02/02 06:45:51;;;;;;;15.88;2.60;;;;;;;4.89;83.54;100064.66;5017792;28;20029;-47
2022/02/02 06:48:18;;;;;;;13.82;3.13;;;;;;;4.89;83.45;100069.16;5017453;28;20152;-47
2022/02/02 06:50:52;;;;;;;14.10;2.42;;;;;;;4.86;83.58;100075.75;5019069;28;20036;-47
2022/02/02 06:53:30;;;;;;;18.85;2.65;;;;;;;4.87;83.45;100084.50;5020946;28;20036;-47
2022/02/02 06:58:48;;;;;;;13.77;3.15;;;;;;;4.90;83.52;100103.44;5020449;28;20537;-47
2022/02/02 07:01:47;;;;;;;10.45;2.00;;;;;;;4.84;83.98;100113.09;5020420;28;20441;-47
2022/02/02 07:04:15;;;;;;;10.68;2.47;;;;;;;4.72;84.20;100109.63;5020900;28;20171;-47
2022/02/02 07:06:54;;;;;;;12.80;3.03;;;;;;;4.64;84.65;100114.41;5019326;28;20041;-47
2022/02/02 07:12:13;;;;;;;6.38;1.45;;;;;;;4.55;85.07;100125.34;5020962;28;20049;-47
2022/02/02 07:28:08;;;;;;;3.60;0.95;;;;;;;4.32;84.40;100122.56;5019857;28;20281;-47
2022/02/02 07:33:14;;;;;;;6.10;1.00;;;;;;;4.31;84.17;100134.22;5018949;28;20037;-47
2022/02/02 07:35:56;;;;;;;8.80;1.50;;;;;;;4.32;84.17;100135.03;5017760;28;20033;-47
2022/02/02 07:38:26;;;;;;;8.18;1.42;;;;;;;4.30;84.01;100140.53;5012925;28;20032;-47
2022/02/02 07:40:58;;;;;;;4.25;1.25;;;;;;;4.36;84.39;100137.00;5015547;28;20036;-47
2022/02/02 07:43:28;;;;;;;6.80;1.33;;;;;;;4.39;84.46;100135.75;5020352;28;20072;-47
2022/02/02 07:46:06;;;;;;;6.95;1.50;;;;;;;4.38;84.18;100134.94;5016990;28;20083;-47
2022/02/02 07:48:40;;;;;;;7.90;2.15;;;;;;;4.32;83.83;100137.69;5018148;28;20026;-47
2022/02/02 07:51:08;;;;;;;11.18;1.85;;;;;;;4.40;84.28;100135.53;5013149;28;20116;-47
2022/02/02 07:53:46;;;;;;;5.13;1.80;;;;;;;4.42;84.16;100148.56;5021623;28;20281;-46
2022/02/02 07:56:15;;;;;;;10.55;1.50;;;;;;;4.46;83.85;100158.50;5022687;28;20278;-48
2022/02/02 07:58:45;;;;;;;14.48;1.98;;;;;;;4.46;83.83;100163.00;5019229;28;20025;-47
2022/02/02 08:01:13;;;;;;;9.48;1.75;;;;;;;4.47;83.75;100162.78;5023197;28;20029;-47
2022/02/02 08:03:42;;;;;;;10.40;1.40;;;;;;;4.51;84.29;100152.56;5020560;28;20060;-46
2022/02/02 08:06:09;;;;;;;7.55;1.50;;;;;;;4.53;83.73;100161.09;5025033;28;20301;-46
2022/02/02 08:08:37;;;;;;;6.07;1.38;;;;;;;4.53;83.92;100171.69;5025893;28;20022;-47
2022/02/02 08:11:09;;;;;;;4.30;1.10;;;;;;;4.51;83.65;100176.44;5019255;28;20676;-47
2022/02/02 08:13:46;;;;;;;9.50;1.55;;;;;;;4.49;83.81;100186.44;5023007;28;20068;-47
2022/02/02 08:16:14;;;;;;;11.63;1.48;;;;;;;4.53;84.07;100182.31;5024072;28;20025;-46
2022/02/02 08:18:44;;;;;;;12.90;1.90;;;;;;;4.60;83.73;100198.16;5020620;28;20502;-47
2022/02/02 08:21:10;;;;;;;14.52;2.10;;;;;;;4.63;83.96;100203.81;5021964;28;20418;-47
2022/02/02 08:23:36;;;;;;;14.57;1.90;;;;;;;4.69;83.57;100189.69;5019252;28;20407;-47
2022/02/02 08:26:05;;;;;;;14.63;2.22;;;;;;;4.71;83.32;100205.38;5020572;28;20307;-47
2022/02/02 08:28:31;;;;;;;12.57;2.10;;;;;;;4.75;83.37;100203.88;5021723;28;20053;-47
2022/02/02 08:30:57;;;;;;;11.82;2.13;;;;;;;4.79;83.17;100205.06;5021385;28;20083;-47
2022/02/02 08:33:28;;;;;;;6.75;2.03;;;;;;;4.81;83.25;100211.75;5020944;28;20033;-47
2022/02/02 08:35:55;;;;;;;11.93;2.92;;;;;;;4.85;83.03;100214.81;5019722;28;20036;-47
2022/02/02 08:40:56;;;;;;;9.00;1.63;;;;;;;4.89;83.06;100231.09;5015836;28;20092;-47
2022/02/02 08:43:28;;;;;;;13.45;2.17;;;;;;;4.87;83.11;100231.31;5020456;28;20025;-47
2022/02/02 08:46:00;;;;;;;12.38;2.17;;;;;;;4.81;83.26;100243.59;5020877;28;20093;-48
2022/02/02 08:48:27;;;;;;;5.18;1.30;;;;;;;4.88;83.19;100256.00;5020417;28;20091;-47
2022/02/02 08:50:58;;;;;;;7.25;1.42;;;;;;;4.83;83.02;100256.66;5021243;28;20025;-46
2022/02/02 08:58:43;;;;;;;10.43;1.65;;;;;;;4.88;83.42;100274.59;5006990;28;20286;-47
2022/02/02 09:01:14;;;;;;;11.18;1.88;;;;;;;4.87;83.55;100260.50;5019047;28;20151;-47
2022/02/02 09:06:24;;;;;;;12.85;1.77;;;;;;;4.84;83.52;100290.13;5013628;28;20086;-47
2022/02/02 09:08:59;;;;;;;9.10;1.60;;;;;;;4.89;83.48;100282.34;5010429;28;20033;-47
2022/02/02 09:25:18;;;;;;;7.60;1.80;;;;;;;5.06;84.14;100314.41;5013229;28;20048;-46
2022/02/02 09:35:52;;;;;;;7.00;1.92;;;;;;;5.27;83.84;100331.72;5018665;28;20351;-47
2022/02/02 09:38:19;;;;;;;11.65;2.28;;;;;;;5.23;83.83;100347.31;5019718;28;20021;-47
2022/02/02 09:43:22;;;;;;;5.88;1.85;;;;;;;5.13;84.40;100347.00;5018455;28;20039;-47
2022/02/02 09:45:54;;;;;;;9.13;1.85;;;;;;;5.13;84.02;100342.50;5014958;28;20464;-47
2022/02/02 09:48:26;;;;;;;15.80;2.03;;;;;;;5.20;84.02;100362.84;5016726;28;20080;-47
2022/02/02 09:50:58;;;;;;;9.90;2.05;;;;;;;5.21;84.09;100364.50;5021668;28;20017;-47
2022/02/02 10:15:27;;;;;;;17.98;2.95;;;;;;;5.54;82.58;100398.63;5024792;28;20043;-47
2022/02/02 10:18:00;;;;;;;15.25;3.53;;;;;;;5.57;82.48;100401.66;5029606;28;20022;-47
2022/02/02 10:20:29;;;;;;;12.23;2.28;;;;;;;5.64;82.44;100397.06;5027631;28;20091;-48
2022/02/02 10:22:57;;;;;;;17.20;2.05;;;;;;;5.71;82.12;100407.59;5024344;28;20036;-47
2022/02/02 10:25:30;;;;;;;9.43;2.45;;;;;;;5.78;81.84;100407.53;5022914;28;20136;-46
2022/02/02 10:28:17;;;;;;;12.90;2.72;;;;;;;5.79;80.90;100425.91;5029708;28;20192;-47
2022/02/02 10:30:52;;;;;;;15.40;2.38;;;;;;;5.83;80.56;100415.63;5028679;28;20022;-48
2022/02/02 10:33:23;;;;;;;13.20;2.13;;;;;;;5.85;80.73;100434.84;5023782;28;20029;-47
2022/02/02 10:35:52;;;;;;;11.48;2.83;;;;;;;5.86;80.13;100436.44;5025483;28;20099;-47
2022/02/02 10:38:22;;;;;;;12.15;2.25;;;;;;;5.81;79.77;100450.44;5026498;28;20029;-47
2022/02/02 10:41:01;;;;;;;15.93;2.08;;;;;;;5.58;79.65;100466.25;5022761;28;20028;-47
2022/02/02 10:43:34;;;;;;;10.45;2.08;;;;;;;5.58;80.34;100453.78;5022491;28;20076;-47
2022/02/02 10:46:19;;;;;;;11.00;1.83;;;;;;;5.57;80.89;100468.09;5026391;28;20047;-46
2022/02/02 10:48:51;;;;;;;11.35;2.28;;;;;;;5.65;80.82;100473.09;5026692;28;20095;-46
2022/02/02 10:51:32;;;;;;;7.65;1.77;;;;;;;5.56;80.05;100471.75;5020706;28;20032;-47
2022/02/02 10:54:15;;;;;;;9.43;1.50;;;;;;;5.51;80.08;100482.25;5014198;28;20270;-49
2022/02/02 10:59:23;;;;;;;8.23;2.00;;;;;;;5.58;79.64;100492.84;5015362;28;20030;-47
2022/02/02 11:07:28;;;;;;;7.03;1.70;;;;;;;5.79;80.05;100504.88;4966756;28;20524;-47
2022/02/02 11:09:54;;;;;;;7.22;1.85;;;;;;;5.93;79.72;100511.69;5024518;28;20029;-46
2022/02/02 11:12:25;;;;;;;8.02;1.63;;;;;;;6.03;79.16;100514.59;5022310;28;20036;-47
2022/02/02 11:15:12;;;;;;;11.50;2.08;;;;;;;5.96;78.43;100530.66;5020143;28;20033;-46
2022/02/02 11:17:46;;;;;;;7.05;1.80;;;;;;;5.96;78.49;100543.16;5010502;28;20034;-46
2022/02/02 11:20:13;;;;;;;7.25;1.55;;;;;;;6.04;78.62;100553.47;5015338;28;20606;-46
2022/02/02 11:22:53;;;;;;;8.07;1.67;;;;;;;5.88;78.31;100562.00;5015700;28;20029;-46
2022/02/02 11:25:22;;;;;;;11.25;1.40;;;;;;;5.72;79.25;100571.38;5019619;28;20032;-47
2022/02/02 11:27:50;;;;;;;5.53;1.05;;;;;;;5.65;79.16;100571.44;5021916;28;20029;-47
2022/02/02 11:30:25;;;;;;;6.00;1.17;;;;;;;5.64;79.20;100572.50;5020334;28;20038;-46
2022/02/02 11:32:54;;;;;;;2.53;0.90;;;;;;;5.65;79.56;100587.41;5010943;28;20033;-46
2022/02/02 11:35:57;;;;;;;5.43;1.23;;;;;;;5.62;79.26;100597.66;5021325;28;20064;-47
2022/02/02 11:38:31;;;;;;;7.32;1.27;;;;;;;5.60;79.25;100597.06;5009852;28;20045;-47
2022/02/02 11:49:43;;;;;;;3.60;1.10;;;;;;;5.32;79.65;100621.41;5016928;28;20032;-47
2022/02/02 11:52:31;;;;;;;7.90;1.00;;;;;;;5.26;79.56;100628.41;5018350;28;20386;-48
2022/02/02 11:54:56;;;;;;;4.25;1.30;;;;;;;5.37;79.75;100632.19;5014080;28;20085;-47
2022/02/02 11:57:25;;;;;;;7.78;1.05;;;;;;;5.37;80.18;100640.16;5015616;28;20578;-47
2022/02/02 12:00:00;;;;;;;3.88;0.80;;;;;;;5.36;79.88;100654.47;5016795;28;20345;-47
2022/02/02 12:07:57;;;;;;;3.17;1.00;;;;;;;5.28;80.38;100662.72;5023730;28;20083;-47
2022/02/02 13:00:12;;;;;;;4.38;1.10;;;;;;;5.27;81.02;100786.78;5046559;28;20021;-47
2022/02/02 13:02:40;;;;;;;3.05;1.27;;;;;;;5.36;80.48;100805.94;5042907;28;20423;-45
2022/02/02 13:05:08;;;;;;;2.65;0.95;;;;;;;5.41;80.25;100806.13;5042028;28;20162;-44
2022/02/02 13:07:35;;;;;;;4.05;1.10;;;;;;;5.36;80.68;100827.19;5028978;28;20021;-48
2022/02/02 13:10:06;;;;;;;3.65;0.80;;;;;;;5.29;80.27;100819.25;5028524;28;20491;-48
2022/02/02 13:12:52;;;;;;;3.42;1.58;;;;;;;5.31;80.72;100848.25;5027894;28;20112;-48
2022/02/02 13:15:45;;;;;;;3.40;1.27;;;;;;;5.19;80.60;100852.59;5029681;28;20076;-48
2022/02/02 13:18:19;;;;;;;1.67;0.90;;;;;;;5.24;80.71;100864.25;5028850;28;20113;-48
2022/02/02 13:23:21;;;;;;;2.97;0.90;;;;;;;5.19;79.96;100881.81;5033246;28;20479;-48
2022/02/02 13:26:04;;;;;;;1.67;1.20;;;;;;;5.14;80.14;100914.31;5027249;28;20039;-47
2022/02/02 13:28:42;;;;;;;3.30;1.30;;;;;;;5.05;79.99;100900.47;5027386;28;20502;-47
2022/02/02 13:31:19;;;;;;;2.20;1.02;;;;;;;5.11;80.22;100906.78;5026383;28;20060;-47
2022/02/02 13:33:49;;;;;;;2.58;1.02;;;;;;;5.13;79.56;100916.16;5031169;28;20109;-48
2022/02/02 13:42:31;;;;;;;1.65;1.15;;;;;;;5.12;78.97;100935.78;5031437;28;20033;-48
2022/02/02 13:48:00;;;;;;;1.85;0.82;;;;;;;4.90;78.07;100971.56;5036307;28;20072;-47
2022/02/02 13:53:22;;;;;;;0.50;0.50;;;;;;;4.70;78.25;100973.41;5034482;28;20028;-47
2022/02/02 13:56:08;;;;;;;0.50;0.50;;;;;;;4.69;78.63;100987.69;5018653;28;20024;-47
2022/02/02 14:33:20;;;;;;;4.38;1.10;;;;;;;4.28;79.72;101133.69;5016767;28;20407;-48
2022/02/02 14:35:47;;;;;;;2.05;0.70;;;;;;;4.31;79.95;101141.25;5013051;28;20022;-47
2022/02/02 14:38:14;;;;;;;1.48;0.85;;;;;;;4.31;79.79;101138.59;5012471;28;20041;-50
2022/02/02 14:40:56;;;;;;;1.23;0.93;;;;;;;4.34;79.98;101138.25;5010618;28;20709;-50
2022/02/02 14:43:48;;;;;;;4.28;0.85;;;;;;;4.38;80.00;101150.91;5009468;28;20025;-48
2022/02/02 14:46:13;;;;;;;1.85;0.77;;;;;;;4.43;79.51;101175.00;5015258;28;20437;-48
2022/02/02 14:48:46;;;;;;;1.33;0.65;;;;;;;4.34;79.13;101172.72;5010785;28;20041;-47
2022/02/02 15:05:28;;;;;;;0.82;0.77;;;;;;;4.15;79.39;101212.19;5011508;28;20046;-47
2022/02/02 15:24:00;;;;;;;4.07;1.05;;;;;;;4.01;78.55;101241.47;5018357;28;20179;-48
2022/02/02 15:29:09;;;;;;;1.38;0.95;;;;;;;4.08;78.41;101245.78;5019692;28;20060;-48
2022/02/02 15:31:36;;;;;;;;;;;;;;;3.99;78.32;101240.84;5014619;28;20083;-48
2022/02/02 15:34:03;;;;;;;2.55;1.30;;;;;;;4.06;78.09;101262.91;5018794;28;19917;-48
2022/02/02 15:39:14;;;;;;;3.03;1.03;;;;;;;4.06;77.90;101278.81;5019379;28;20500;-48
2022/02/02 16:03:26;;;;;;;3.00;1.60;;;;;;;3.99;77.18;101336.28;5015607;28;20044;-48
2022/02/02 16:05:57;;;;;;;4.93;1.60;;;;;;;3.98;77.15;101338.13;5018616;28;20057;-48
2022/02/02 16:08:25;;;;;;;3.05;1.30;;;;;;;4.02;77.20;101347.34;5018014;28;20040;-48
2022/02/02 16:13:29;;;;;;;3.05;1.13;;;;;;;3.99;76.71;101354.84;5017515;28;20036;-48
2022/02/02 16:15:59;;;;;;;2.20;1.10;;;;;;;3.99;76.87;101360.16;5015975;28;20057;-48
2022/02/02 16:37:35;;;;;;;7.57;3.08;;;;;;;3.88;76.49;101399.41;5017993;28;20454;-48
2022/02/02 16:40:04;;;;;;;5.63;3.00;;;;;;;3.89;76.97;101394.91;5016949;28;20061;-48
2022/02/02 16:45:15;;;;;;;6.15;2.60;;;;;;;3.85;76.97;101410.38;5018867;28;20040;-48
2022/02/02 16:47:41;;;;;;;4.13;2.28;;;;;;;3.85;76.66;101415.69;5012298;28;20087;-47
2022/02/02 16:50:09;;;;;;;5.78;2.28;;;;;;;3.81;76.82;101411.78;5017613;28;20025;-48
2022/02/02 16:52:35;;;;;;;2.95;1.40;;;;;;;3.77;77.01;101414.97;5018238;28;20616;-48
2022/02/02 16:55:08;;;;;;;2.08;1.50;;;;;;;3.75;76.91;101428.41;5018930;28;20079;-48
2022/02/02 17:29:55;;;;;;;7.10;2.70;;;;;;;3.32;77.24;101483.91;5012557;28;20486;-48
2022/02/02 17:32:36;;;;;;;5.97;2.70;;;;;;;3.26;77.56;101482.00;5015050;28;20033;-48
2022/02/02 17:40:22;;;;;;;7.88;3.17;;;;;;;3.13;78.20;101489.75;5015372;28;20033;-48
2022/02/02 18:20:42;;;;;;;4.10;2.17;;;;;;;2.72;77.60;101572.16;5022166;28;20509;-48
2022/02/02 18:23:34;;;;;;;6.72;2.67;;;;;;;2.72;77.82;101572.16;5021890;28;20534;-48
2022/02/02 18:36:41;;;;;;;586.22;289.60;;;;;;;9.00;77.26;101580.06;5018174;28;20086;-50
2022/02/02 18:44:48;;;;;;;444.08;214.23;;;;;;;12.67;69.18;101583.06;5022616;28;20037;-52
2022/02/02 18:47:29;;;;;;;374.33;190.00;;;;;;;13.66;67.71;101601.38;5023917;28;20030;-51
2022/02/02 18:50:07;;;;;;;421.45;199.48;;;;;;;14.45;66.47;101601.88;5022435;28;20466;-50
2022/02/02 19:56:52;;;;;;;6.80;1.42;;;;;;;6.27;66.23;101655.25;4999058;28;20030;-76
2022/02/02 20:02:39;;;;;;;2.65;1.23;;;;;;;5.84;66.48;101651.91;5005418;28;20092;-77
2022/02/02 20:10:37;;;;;;;2.28;1.30;;;;;;;5.28;66.58;101659.03;4999367;28;20033;-76
2022/02/02 20:13:03;;;;;;;3.42;1.17;;;;;;;5.15;66.83;101657.06;5001065;28;20519;-77
2022/02/02 20:15:33;;;;;;;5.30;1.33;;;;;;;5.06;67.45;101652.91;4979972;28;20031;-76
2022/02/02 20:18:02;;;;;;;7.75;1.25;;;;;;;4.88;67.25;101658.66;5003544;28;20109;-76
2022/02/02 20:20:27;;;;;;;5.13;1.15;;;;;;;4.77;67.23;101664.44;5002819;28;20053;-76
2022/02/02 20:22:53;;;;;;;2.80;0.95;;;;;;;4.67;67.12;101663.91;4998667;28;20180;-77
2022/02/02 20:25:19;;;;;;;3.28;1.05;;;;;;;4.66;67.38;101662.25;4985590;28;20022;-76
2022/02/02 20:28:01;;;;;;;3.22;1.10;;;;;;;4.59;67.59;101667.50;4983192;28;20041;-76
2022/02/02 20:30:26;;;;;;;4.20;1.20;;;;;;;4.42;67.78;101666.88;4999670;28;20030;-76
2022/02/02 20:32:52;;;;;;;5.20;1.52;;;;;;;4.38;68.28;101664.78;4983164;28;20026;-76
2022/02/02 20:35:17;;;;;;;2.95;1.48;;;;;;;4.36;68.13;101667.63;4985219;28;20022;-76
2022/02/02 20:37:43;;;;;;;4.85;1.58;;;;;;;4.37;68.17;101679.88;5002536;28;20041;-76
2022/02/02 20:40:09;;;;;;;6.47;1.95;;;;;;;4.29;68.60;101679.16;4981197;28;20044;-76
2022/02/02 21:07:08;;;;;;;4.67;1.33;;;;;;;3.83;70.61;101688.09;5004673;28;20103;-77
2022/02/02 21:09:52;;;;;;;1.73;1.48;;;;;;;3.75;70.85;101690.81;5003112;28;20400;-77
2022/02/02 21:15:11;;;;;;;3.72;1.15;;;;;;;3.62;71.35;101701.22;5007491;28;20037;-76
2022/02/02 21:17:38;;;;;;;2.65;1.27;;;;;;;3.63;71.73;101708.16;5005771;28;20066;-77
2022/02/02 21:23:06;;;;;;;6.15;1.20;;;;;;;3.59;71.75;101720.09;4994654;28;20096;-77
2022/02/02 21:25:36;;;;;;;4.53;1.35;;;;;;;3.57;72.26;101725.59;4985861;28;20586;-77
2022/02/02 21:28:07;;;;;;;5.13;1.00;;;;;;;3.55;72.16;101732.06;5001900;28;20856;-77
2022/02/02 21:30:49;;;;;;;5.65;1.92;;;;;;;3.48;72.63;101736.44;5004459;28;20344;-77
2022/02/02 21:33:16;;;;;;;3.88;1.00;;;;;;;3.51;72.62;101750.16;4986921;28;20055;-77
2022/02/02 21:35:56;;;;;;;5.97;1.40;;;;;;;3.45;73.01;101747.41;4987746;28;20314;-77
2022/02/02 21:40:54;;;;;;;5.22;1.15;;;;;;;3.36;73.49;101754.56;4997945;28;20088;-77
2022/02/02 21:43:21;;;;;;;3.42;1.20;;;;;;;3.28;73.82;101752.81;5005074;28;20101;-77
2022/02/02 21:45:46;;;;;;;4.90;1.25;;;;;;;3.25;74.00;101753.16;5000450;28;20044;-77
2022/02/02 21:48:12;;;;;;;3.70;0.95;;;;;;;3.24;74.13;101764.75;4985713;28;20033;-77
2022/02/02 21:50:45;;;;;;;3.83;1.23;;;;;;;3.20;74.02;101760.78;4984674;28;20395;-78
2022/02/02 21:53:11;;;;;;;4.85;1.25;;;;;;;3.20;74.31;101765.25;4999784;28;20105;-77
2022/02/02 21:55:37;;;;;;;6.28;1.67;;;;;;;3.18;74.31;101749.53;4980024;28;20133;-77
2022/02/02 21:58:04;;;;;;;5.78;1.50;;;;;;;3.14;74.40;101761.50;4997318;28;20036;-77
2022/02/02 22:00:29;;;;;;;8.73;1.60;;;;;;;3.13;74.21;101764.31;4984100;28;20072;-78
2022/02/02 22:02:55;;;;;;;5.60;1.48;;;;;;;3.12;74.27;101766.16;5003318;28;20057;-77
2022/02/02 22:05:21;;;;;;;7.70;1.70;;;;;;;3.05;74.73;101773.13;4982164;28;20026;-78
2022/02/02 22:07:46;;;;;;;7.28;1.80;;;;;;;3.00;75.09;101772.81;4984040;28;20029;-77
2022/02/02 22:10:12;;;;;;;3.13;1.42;;;;;;;2.96;74.90;101768.88;4999155;28;20058;-77
2022/02/02 22:12:39;;;;;;;7.75;1.70;;;;;;;2.96;75.17;101772.34;4985504;28;20037;-78
2022/02/02 22:15:12;;;;;;;4.75;1.65;;;;;;;2.92;75.03;101768.41;4982075;28;20045;-77
2022/02/02 22:17:37;;;;;;;4.80;1.80;;;;;;;2.90;75.29;101774.88;4985393;28;20056;-78
2022/02/02 22:20:07;;;;;;;4.72;2.00;;;;;;;2.88;75.23;101771.56;4999240;28;20072;-77
2022/02/02 22:22:33;;;;;;;8.80;1.35;;;;;;;2.86;75.25;101777.00;4980966;28;20350;-77
2022/02/02 22:25:00;;;;;;;3.72;1.20;;;;;;;2.82;75.43;101785.47;4985476;28;20030;-77
2022/02/02 22:27:25;;;;;;;7.32;1.95;;;;;;;2.80;75.35;101785.66;4981826;28;20538;-77
2022/02/02 22:29:51;;;;;;;3.03;1.15;;;;;;;2.77;75.59;101780.69;4982571;28;20029;-78
2022/02/02 22:32:17;;;;;;;3.38;1.15;;;;;;;2.76;75.80;101781.69;4998494;28;20484;-77
2022/02/02 22:34:42;;;;;;;7.45;1.95;;;;;;;2.73;75.69;101782.88;4997075;28;20458;-77
2022/02/02 22:37:10;;;;;;;6.38;1.25;;;;;;;2.65;76.06;101788.19;4984472;28;20080;-78
2022/02/02 22:39:40;;;;;;;5.10;1.48;;;;;;;2.59;76.35;101788.88;5001229;28;20037;-78
2022/02/02 22:42:06;;;;;;;6.63;1.55;;;;;;;2.58;75.92;101795.16;4980042;28;20487;-77
2022/02/02 22:44:32;;;;;;;6.82;1.50;;;;;;;2.54;76.53;101793.84;4985326;28;20033;-77
2022/02/02 22:47:03;;;;;;;9.80;1.55;;;;;;;2.48;76.75;101791.88;4983008;28;20041;-77
2022/02/02 22:49:31;;;;;;;5.40;1.90;;;;;;;2.51;76.45;101794.16;4981837;28;20044;-77
2022/02/02 22:51:57;;;;;;;6.93;1.58;;;;;;;2.46;76.55;101796.50;4981051;28;20052;-77
2022/02/02 22:54:22;;;;;;;2.67;1.60;;;;;;;2.45;76.33;101792.22;4980882;28;20465;-77
2022/02/02 22:56:48;;;;;;;6.32;1.42;;;;;;;2.40;76.90;101794.53;4976589;28;20111;-77
2022/02/02 22:59:14;;;;;;;7.97;1.73;;;;;;;2.39;76.77;101798.19;4983344;28;20053;-78
2022/02/02 23:01:40;;;;;;;5.63;1.58;;;;;;;2.37;76.63;101794.88;4982285;28;20041;-78
2022/02/02 23:04:06;;;;;;;8.15;1.73;;;;;;;2.36;76.43;101802.00;5001206;28;20021;-77
2022/02/02 23:06:32;;;;;;;7.20;1.10;;;;;;;2.36;76.62;101801.16;4981820;28;20099;-77
2022/02/02 23:08:59;;;;;;;4.53;1.77;;;;;;;2.30;77.09;101797.34;4983510;28;20397;-78
2022/02/02 23:11:25;;;;;;;9.52;1.65;;;;;;;2.28;76.75;101803.81;4980940;28;20026;-77
2022/02/02 23:13:53;;;;;;;7.13;1.73;;;;;;;2.25;77.27;101807.63;4981480;28;20492;-78
2022/02/02 23:16:32;;;;;;;5.32;1.48;;;;;;;2.23;77.20;101803.50;4979709;28;20026;-78